sensor_id;sensor_type;location;lat;lon;timestamp;P1;P2;P0
77692;PMS5003;66984;47.404;18.836;2023-05-10T00:01:02;6.00;5.00;2.00
77692;PMS5003;66984;47.404;18.836;2023-05-10T00:02:05;7.00;6.00;2.00
77692;PMS5003;66984;47.404;18.836;2023-05-10T00:03:08;6.50;6.50;2.00
77692;PMS5003;66984;47.404;18.836;2023-05-10T00:04:11;5.00;5.00;2.00
77692;PMS5003;66984;47.404;18.836;2023-05-10T00:05:14;5.00;4.00;1.00
77692;PMS5003;66984;47.404;18.836;2023-05-10T00:06:17;6.75;6.50;1.50
77692;PMS5003;66984;47.404;18.836;2023-05-10T00:07:20;6.00;5.00;2.00
77692;PMS5003;66984;47.404;18.836;2023-05-10T00:08:23;4.50;4.00;3.00
77692;PMS5003;66984;47.404;18.836;2023-05-10T00:09:26;4.00;4.00;2.00
77692;PMS5003;66984;47.404;18.836;2023-05-10T00:10:29;5.00;5.00;1.00
77692;PMS5003;66984;47.404;18.836;2023-05-10T00:11:32;4.00;3.00;2.00
77692;PMS5003;66984;47.404;18.836;2023-05-10T00:12:34;4.00;4.00;1.00
77692;PMS5003;66984;47.404;18.836;2023-05-10T00:13:37;5.00;5.00;0.25
77692;PMS5003;66984;47.404;18.836;2023-05-10T00:14:40;6.00;4.00;1.00
77692;PMS5003;66984;47.404;18.836;2023-05-10T00:15:43;3.50;3.00;2.00
77692;PMS5003;66984;47.404;18.836;2023-05-10T00:16:46;4.50;4.50;1.00
77692;PMS5003;66984;47.404;18.836;2023-05-10T00:17:49;4.00;4.00;1.00
77692;PMS5003;66984;47.404;18.836;2023-05-10T00:18:52;6.00;6.00;1.50
77692;PMS5003;66984;47.404;18.836;2023-05-10T00:19:55;5.50;5.50;1.00
77692;PMS5003;66984;47.404;18.836;2023-05-10T00:20:57;6.00;6.00;1.00
77692;PMS5003;66984;47.404;18.836;2023-05-10T00:22:00;6.00;6.00;0.00
77692;PMS5003;66984;47.404;18.836;2023-05-10T00:23:03;7.00;7.00;0.75
77692;PMS5003;66984;47.404;18.836;2023-05-10T00:24:07;5.00;5.00;1.00
77692;PMS5003;66984;47.404;18.836;2023-05-10T00:25:09;6.00;5.25;1.00
77692;PMS5003;66984;47.404;18.836;2023-05-10T00:26:13;7.00;7.00;1.00
77692;PMS5003;66984;47.404;18.836;2023-05-10T00:27:16;7.00;6.50;3.00
77692;PMS5003;66984;47.404;18.836;2023-05-10T00:28:18;5.75;5.25;3.00
77692;PMS5003;66984;47.404;18.836;2023-05-10T00:29:21;7.00;6.00;2.00
77692;PMS5003;66984;47.404;18.836;2023-05-10T00:30:24;6.25;5.00;3.00
77692;PMS5003;66984;47.404;18.836;2023-05-10T00:31:27;6.75;5.50;2.00
77692;PMS5003;66984;47.404;18.836;2023-05-10T00:32:30;7.00;6.00;1.00
77692;PMS5003;66984;47.404;18.836;2023-05-10T00:33:33;8.00;8.00;2.25
77692;PMS5003;66984;47.404;18.836;2023-05-10T00:34:36;7.00;7.00;2.00
77692;PMS5003;66984;47.404;18.836;2023-05-10T00:35:38;8.00;8.00;3.00
77692;PMS5003;66984;47.404;18.836;2023-05-10T00:36:41;5.25;5.00;3.00
77692;PMS5003;66984;47.404;18.836;2023-05-10T00:37:44;6.75;5.75;3.00
77692;PMS5003;66984;47.404;18.836;2023-05-10T00:38:47;6.00;5.00;2.00
77692;PMS5003;66984;47.404;18.836;2023-05-10T00:39:50;7.00;7.00;3.25
77692;PMS5003;66984;47.404;18.836;2023-05-10T00:40:53;5.25;5.25;3.00
77692;PMS5003;66984;47.404;18.836;2023-05-10T00:41:56;7.00;7.00;3.00
77692;PMS5003;66984;47.404;18.836;2023-05-10T00:42:59;7.00;7.00;3.00
77692;PMS5003;66984;47.404;18.836;2023-05-10T00:44:03;7.00;6.75;3.50
77692;PMS5003;66984;47.404;18.836;2023-05-10T00:45:06;8.25;7.50;3.75
77692;PMS5003;66984;47.404;18.836;2023-05-10T00:46:09;7.00;7.00;1.75
77692;PMS5003;66984;47.404;18.836;2023-05-10T00:47:13;7.00;7.00;1.00
77692;PMS5003;66984;47.404;18.836;2023-05-10T00:48:16;7.00;7.00;0.00
77692;PMS5003;66984;47.404;18.836;2023-05-10T00:49:19;6.50;6.00;1.00
77692;PMS5003;66984;47.404;18.836;2023-05-10T00:50:23;7.00;6.75;1.75
77692;PMS5003;66984;47.404;18.836;2023-05-10T00:51:28;7.00;7.00;1.50
77692;PMS5003;66984;47.404;18.836;2023-05-10T00:52:31;7.00;7.00;4.00
77692;PMS5003;66984;47.404;18.836;2023-05-10T00:53:34;5.00;5.00;3.00
77692;PMS5003;66984;47.404;18.836;2023-05-10T00:54:37;6.50;6.50;3.00
77692;PMS5003;66984;47.404;18.836;2023-05-10T00:55:40;7.00;6.75;3.00
77692;PMS5003;66984;47.404;18.836;2023-05-10T00:56:44;7.00;6.75;2.00
77692;PMS5003;66984;47.404;18.836;2023-05-10T00:57:52;6.00;6.00;1.00
77692;PMS5003;66984;47.404;18.836;2023-05-10T00:58:55;6.00;6.00;1.00
77692;PMS5003;66984;47.404;18.836;2023-05-10T00:59:59;7.00;6.75;3.25
77692;PMS5003;66984;47.404;18.836;2023-05-10T01:01:03;7.00;7.00;4.00
77692;PMS5003;66984;47.404;18.836;2023-05-10T01:02:07;6.00;6.00;3.50
77692;PMS5003;66984;47.404;18.836;2023-05-10T01:03:10;5.25;5.25;3.00
77692;PMS5003;66984;47.404;18.836;2023-05-10T01:04:14;7.00;7.00;2.75
77692;PMS5003;66984;47.404;18.836;2023-05-10T01:05:17;6.00;6.00;2.00
77692;PMS5003;66984;47.404;18.836;2023-05-10T01:06:20;6.00;5.75;3.00
77692;PMS5003;66984;47.404;18.836;2023-05-10T01:07:23;7.50;6.50;3.25
77692;PMS5003;66984;47.404;18.836;2023-05-10T01:08:26;7.00;7.00;4.00
77692;PMS5003;66984;47.404;18.836;2023-05-10T01:09:30;7.00;7.00;3.00
77692;PMS5003;66984;47.404;18.836;2023-05-10T01:10:34;7.00;7.00;2.25
77692;PMS5003;66984;47.404;18.836;2023-05-10T01:11:37;6.50;6.50;2.00
77692;PMS5003;66984;47.404;18.836;2023-05-10T01:12:42;7.00;6.50;2.00
77692;PMS5003;66984;47.404;18.836;2023-05-10T01:13:50;6.50;6.50;1.75
77692;PMS5003;66984;47.404;18.836;2023-05-10T01:14:58;6.50;6.00;2.50
77692;PMS5003;66984;47.404;18.836;2023-05-10T01:16:03;7.00;7.00;3.00
77692;PMS5003;66984;47.404;18.836;2023-05-10T01:17:07;7.25;7.00;2.25
77692;PMS5003;66984;47.404;18.836;2023-05-10T01:18:11;6.00;5.50;2.00
77692;PMS5003;66984;47.404;18.836;2023-05-10T01:19:24;7.00;7.00;4.00
77692;PMS5003;66984;47.404;18.836;2023-05-10T01:20:30;9.75;7.00;3.00
77692;PMS5003;66984;47.404;18.836;2023-05-10T01:21:47;6.00;6.00;3.75
77692;PMS5003;66984;47.404;18.836;2023-05-10T01:29:11;8.25;7.00;3.00
77692;PMS5003;66984;47.404;18.836;2023-05-10T01:34:33;6.00;6.00;2.00
77692;PMS5003;66984;47.404;18.836;2023-05-10T01:35:51;6.50;6.00;3.00
77692;PMS5003;66984;47.404;18.836;2023-05-10T01:37:04;6.25;6.00;3.00
77692;PMS5003;66984;47.404;18.836;2023-05-10T01:41:54;6.25;6.00;3.25
77692;PMS5003;66984;47.404;18.836;2023-05-10T01:43:06;6.00;6.00;3.00
77692;PMS5003;66984;47.404;18.836;2023-05-10T01:44:17;6.00;6.00;3.00
77692;PMS5003;66984;47.404;18.836;2023-05-10T01:45:37;6.00;6.00;2.00
77692;PMS5003;66984;47.404;18.836;2023-05-10T01:46:48;7.00;6.25;3.00
77692;PMS5003;66984;47.404;18.836;2023-05-10T01:48:07;6.00;6.00;2.00
77692;PMS5003;66984;47.404;18.836;2023-05-10T01:49:15;7.00;7.00;2.50
77692;PMS5003;66984;47.404;18.836;2023-05-10T01:50:29;7.00;7.00;4.00
77692;PMS5003;66984;47.404;18.836;2023-05-10T01:51:38;8.00;7.00;3.00
77692;PMS5003;66984;47.404;18.836;2023-05-10T01:52:53;7.00;7.00;3.00
77692;PMS5003;66984;47.404;18.836;2023-05-10T01:54:01;7.50;6.00;3.00
77692;PMS5003;66984;47.404;18.836;2023-05-10T01:55:06;8.00;7.00;4.00
77692;PMS5003;66984;47.404;18.836;2023-05-10T01:56:11;6.25;6.00;4.00
77692;PMS5003;66984;47.404;18.836;2023-05-10T01:57:16;6.25;6.00;4.00
77692;PMS5003;66984;47.404;18.836;2023-05-10T01:58:30;8.00;8.00;2.00
77692;PMS5003;66984;47.404;18.836;2023-05-10T01:59:35;9.00;8.00;4.25
77692;PMS5003;66984;47.404;18.836;2023-05-10T02:00:43;7.00;7.00;5.00
77692;PMS5003;66984;47.404;18.836;2023-05-10T02:01:48;7.00;7.00;3.00
77692;PMS5003;66984;47.404;18.836;2023-05-10T02:02:53;8.00;6.25;3.25
77692;PMS5003;66984;47.404;18.836;2023-05-10T02:03:57;7.00;6.50;3.75
77692;PMS5003;66984;47.404;18.836;2023-05-10T02:05:02;7.00;6.00;4.00
77692;PMS5003;66984;47.404;18.836;2023-05-10T02:06:07;6.00;6.00;3.00
77692;PMS5003;66984;47.404;18.836;2023-05-10T02:07:13;7.50;7.50;3.00
77692;PMS5003;66984;47.404;18.836;2023-05-10T02:08:17;7.00;6.50;3.00
77692;PMS5003;66984;47.404;18.836;2023-05-10T02:09:23;8.75;7.75;3.00
77692;PMS5003;66984;47.404;18.836;2023-05-10T02:10:30;8.00;7.00;2.00
77692;PMS5003;66984;47.404;18.836;2023-05-10T02:11:37;8.00;8.00;3.00
77692;PMS5003;66984;47.404;18.836;2023-05-10T02:12:42;8.00;7.00;4.00
77692;PMS5003;66984;47.404;18.836;2023-05-10T02:13:48;9.00;9.00;4.00
77692;PMS5003;66984;47.404;18.836;2023-05-10T02:14:53;7.25;6.00;3.00
77692;PMS5003;66984;47.404;18.836;2023-05-10T02:15:58;5.25;5.25;3.00
77692;PMS5003;66984;47.404;18.836;2023-05-10T02:17:02;6.00;6.00;4.00
77692;PMS5003;66984;47.404;18.836;2023-05-10T02:18:07;6.00;6.00;3.00
77692;PMS5003;66984;47.404;18.836;2023-05-10T02:19:13;8.00;8.00;4.00
77692;PMS5003;66984;47.404;18.836;2023-05-10T02:20:17;6.25;6.00;4.00
77692;PMS5003;66984;47.404;18.836;2023-05-10T02:21:21;7.50;7.50;5.00
77692;PMS5003;66984;47.404;18.836;2023-05-10T02:22:26;6.00;6.00;4.00
77692;PMS5003;66984;47.404;18.836;2023-05-10T02:23:30;8.00;8.00;3.75
77692;PMS5003;66984;47.404;18.836;2023-05-10T02:24:34;10.00;10.00;4.00
77692;PMS5003;66984;47.404;18.836;2023-05-10T02:25:38;7.00;7.00;3.50
77692;PMS5003;66984;47.404;18.836;2023-05-10T02:26:42;7.00;7.00;3.00
77692;PMS5003;66984;47.404;18.836;2023-05-10T02:27:46;7.00;7.00;4.00
77692;PMS5003;66984;47.404;18.836;2023-05-10T02:28:51;11.00;9.50;4.00
77692;PMS5003;66984;47.404;18.836;2023-05-10T02:29:55;6.25;6.25;3.00
77692;PMS5003;66984;47.404;18.836;2023-05-10T02:31:00;8.00;7.75;3.00
77692;PMS5003;66984;47.404;18.836;2023-05-10T02:32:03;7.50;7.00;3.00
77692;PMS5003;66984;47.404;18.836;2023-05-10T02:33:07;10.00;10.00;4.50
77692;PMS5003;66984;47.404;18.836;2023-05-10T02:34:10;8.50;8.00;4.00
77692;PMS5003;66984;47.404;18.836;2023-05-10T02:35:14;8.00;8.00;4.00
77692;PMS5003;66984;47.404;18.836;2023-05-10T02:36:18;8.00;8.00;4.00
77692;PMS5003;66984;47.404;18.836;2023-05-10T02:37:23;8.00;6.50;3.00
77692;PMS5003;66984;47.404;18.836;2023-05-10T02:38:28;6.50;6.50;3.75
77692;PMS5003;66984;47.404;18.836;2023-05-10T02:39:32;7.00;7.00;3.00
77692;PMS5003;66984;47.404;18.836;2023-05-10T02:40:36;9.75;9.00;4.00
77692;PMS5003;66984;47.404;18.836;2023-05-10T02:41:40;6.75;6.75;4.00
77692;PMS5003;66984;47.404;18.836;2023-05-10T02:42:45;8.00;8.00;4.00
77692;PMS5003;66984;47.404;18.836;2023-05-10T02:43:51;6.25;6.00;4.00
77692;PMS5003;66984;47.404;18.836;2023-05-10T02:45:00;7.00;7.00;3.00
77692;PMS5003;66984;47.404;18.836;2023-05-10T02:46:05;8.50;8.50;4.00
77692;PMS5003;66984;47.404;18.836;2023-05-10T02:47:08;7.75;7.00;5.00
77692;PMS5003;66984;47.404;18.836;2023-05-10T02:48:11;7.00;7.00;4.00
77692;PMS5003;66984;47.404;18.836;2023-05-10T02:49:15;8.25;8.25;3.00
77692;PMS5003;66984;47.404;18.836;2023-05-10T02:50:18;7.00;7.00;3.00
77692;PMS5003;66984;47.404;18.836;2023-05-10T02:51:24;7.00;7.00;4.00
77692;PMS5003;66984;47.404;18.836;2023-05-10T02:52:36;7.00;6.25;3.00
77692;PMS5003;66984;47.404;18.836;2023-05-10T02:53:42;7.00;7.00;3.00
77692;PMS5003;66984;47.404;18.836;2023-05-10T02:54:48;7.00;7.00;3.00
77692;PMS5003;66984;47.404;18.836;2023-05-10T02:55:54;8.00;7.00;3.25
77692;PMS5003;66984;47.404;18.836;2023-05-10T02:57:03;6.50;6.50;3.00
77692;PMS5003;66984;47.404;18.836;2023-05-10T02:58:07;10.00;9.00;4.00
77692;PMS5003;66984;47.404;18.836;2023-05-10T02:59:10;9.00;8.00;4.00
77692;PMS5003;66984;47.404;18.836;2023-05-10T03:00:13;7.25;6.50;4.00
77692;PMS5003;66984;47.404;18.836;2023-05-10T03:01:16;8.00;7.00;3.75
77692;PMS5003;66984;47.404;18.836;2023-05-10T03:02:20;7.00;7.00;3.50
77692;PMS5003;66984;47.404;18.836;2023-05-10T03:03:23;7.00;7.00;4.00
77692;PMS5003;66984;47.404;18.836;2023-05-10T03:04:26;6.50;6.50;3.00
77692;PMS5003;66984;47.404;18.836;2023-05-10T03:05:29;7.00;7.00;3.75
77692;PMS5003;66984;47.404;18.836;2023-05-10T03:06:32;7.00;7.00;3.00
77692;PMS5003;66984;47.404;18.836;2023-05-10T03:07:35;6.50;6.50;4.00
77692;PMS5003;66984;47.404;18.836;2023-05-10T03:08:38;7.75;7.75;3.50
77692;PMS5003;66984;47.404;18.836;2023-05-10T03:09:41;6.50;6.50;3.75
77692;PMS5003;66984;47.404;18.836;2023-05-10T03:10:50;6.00;6.00;4.00
77692;PMS5003;66984;47.404;18.836;2023-05-10T03:12:11;7.00;7.00;4.00
77692;PMS5003;66984;47.404;18.836;2023-05-10T03:13:36;7.00;6.00;2.00
77692;PMS5003;66984;47.404;18.836;2023-05-10T03:14:55;6.50;6.50;3.00
77692;PMS5003;66984;47.404;18.836;2023-05-10T03:16:06;7.00;6.75;3.00
77692;PMS5003;66984;47.404;18.836;2023-05-10T03:18:45;6.00;6.00;2.00
77692;PMS5003;66984;47.404;18.836;2023-05-10T03:19:55;6.75;6.00;4.00
77692;PMS5003;66984;47.404;18.836;2023-05-10T03:21:01;6.00;6.00;4.00
77692;PMS5003;66984;47.404;18.836;2023-05-10T03:22:08;5.00;5.00;4.00
77692;PMS5003;66984;47.404;18.836;2023-05-10T03:23:18;6.50;6.00;3.00
77692;PMS5003;66984;47.404;18.836;2023-05-10T03:24:24;8.00;8.00;4.00
77692;PMS5003;66984;47.404;18.836;2023-05-10T03:25:30;7.25;7.00;4.00
77692;PMS5003;66984;47.404;18.836;2023-05-10T03:26:34;6.75;6.75;3.25
77692;PMS5003;66984;47.404;18.836;2023-05-10T03:27:39;9.00;7.00;4.00
77692;PMS5003;66984;47.404;18.836;2023-05-10T03:28:44;6.75;6.00;3.00
77692;PMS5003;66984;47.404;18.836;2023-05-10T03:29:48;6.00;6.00;2.50
77692;PMS5003;66984;47.404;18.836;2023-05-10T03:30:52;6.00;6.00;4.00
77692;PMS5003;66984;47.404;18.836;2023-05-10T03:31:58;7.00;7.00;4.00
77692;PMS5003;66984;47.404;18.836;2023-05-10T03:33:05;7.00;7.00;4.00
77692;PMS5003;66984;47.404;18.836;2023-05-10T03:34:11;7.00;6.00;3.00
77692;PMS5003;66984;47.404;18.836;2023-05-10T03:35:13;8.50;8.00;4.00
77692;PMS5003;66984;47.404;18.836;2023-05-10T03:36:17;9.00;7.75;3.00
77692;PMS5003;66984;47.404;18.836;2023-05-10T03:37:20;6.50;6.00;3.50
77692;PMS5003;66984;47.404;18.836;2023-05-10T03:38:23;6.75;6.00;3.00
77692;PMS5003;66984;47.404;18.836;2023-05-10T03:39:30;8.00;8.00;3.00
77692;PMS5003;66984;47.404;18.836;2023-05-10T03:40:33;7.00;7.00;3.25
77692;PMS5003;66984;47.404;18.836;2023-05-10T03:41:36;8.00;6.75;3.25
77692;PMS5003;66984;47.404;18.836;2023-05-10T03:42:38;8.00;6.00;3.00
77692;PMS5003;66984;47.404;18.836;2023-05-10T03:43:41;7.00;7.00;3.00
77692;PMS5003;66984;47.404;18.836;2023-05-10T03:44:44;6.00;6.00;3.00
77692;PMS5003;66984;47.404;18.836;2023-05-10T03:45:47;6.00;6.00;2.00
77692;PMS5003;66984;47.404;18.836;2023-05-10T03:46:50;6.00;6.00;3.50
77692;PMS5003;66984;47.404;18.836;2023-05-10T03:47:53;6.50;6.00;3.00
77692;PMS5003;66984;47.404;18.836;2023-05-10T03:48:56;7.00;7.00;3.50
77692;PMS5003;66984;47.404;18.836;2023-05-10T03:49:59;7.75;7.25;4.00
77692;PMS5003;66984;47.404;18.836;2023-05-10T03:51:02;9.00;9.00;5.00
77692;PMS5003;66984;47.404;18.836;2023-05-10T03:52:05;8.00;8.00;4.00
77692;PMS5003;66984;47.404;18.836;2023-05-10T03:53:08;6.75;6.00;3.00
77692;PMS5003;66984;47.404;18.836;2023-05-10T03:54:10;7.00;6.50;4.25
77692;PMS5003;66984;47.404;18.836;2023-05-10T03:55:13;9.25;9.00;3.50
77692;PMS5003;66984;47.404;18.836;2023-05-10T03:56:17;10.00;8.00;4.00
77692;PMS5003;66984;47.404;18.836;2023-05-10T03:57:19;9.00;8.00;5.00
77692;PMS5003;66984;47.404;18.836;2023-05-10T03:58:22;7.00;6.00;3.00
77692;PMS5003;66984;47.404;18.836;2023-05-10T03:59:25;8.00;8.00;4.00
77692;PMS5003;66984;47.404;18.836;2023-05-10T04:00:28;8.75;8.75;4.00
77692;PMS5003;66984;47.404;18.836;2023-05-10T04:01:31;6.50;6.50;3.25
77692;PMS5003;66984;47.404;18.836;2023-05-10T04:02:34;7.00;7.00;4.00
77692;PMS5003;66984;47.404;18.836;2023-05-10T04:03:37;8.00;7.00;4.00
77692;PMS5003;66984;47.404;18.836;2023-05-10T04:04:40;6.75;6.50;4.75
77692;PMS5003;66984;47.404;18.836;2023-05-10T04:05:43;8.75;8.00;3.00
77692;PMS5003;66984;47.404;18.836;2023-05-10T04:06:46;9.00;7.00;4.00
77692;PMS5003;66984;47.404;18.836;2023-05-10T04:07:49;7.50;7.25;4.00
77692;PMS5003;66984;47.404;18.836;2023-05-10T04:08:53;6.00;6.00;4.00
77692;PMS5003;66984;47.404;18.836;2023-05-10T04:09:56;7.00;7.00;4.00
77692;PMS5003;66984;47.404;18.836;2023-05-10T04:11:11;7.00;6.00;4.00
77692;PMS5003;66984;47.404;18.836;2023-05-10T04:12:15;11.00;10.00;4.00
77692;PMS5003;66984;47.404;18.836;2023-05-10T04:13:18;9.00;8.00;4.00
77692;PMS5003;66984;47.404;18.836;2023-05-10T04:14:21;9.00;8.00;5.25
77692;PMS5003;66984;47.404;18.836;2023-05-10T04:15:24;9.00;8.00;4.00
77692;PMS5003;66984;47.404;18.836;2023-05-10T04:16:27;9.00;7.75;5.00
77692;PMS5003;66984;47.404;18.836;2023-05-10T04:17:30;9.75;7.25;4.00
77692;PMS5003;66984;47.404;18.836;2023-05-10T04:18:33;11.00;10.00;4.00
77692;PMS5003;66984;47.404;18.836;2023-05-10T04:19:37;10.00;9.00;4.00
77692;PMS5003;66984;47.404;18.836;2023-05-10T04:20:39;8.00;7.75;4.00
77692;PMS5003;66984;47.404;18.836;2023-05-10T04:21:42;9.25;8.25;4.00
77692;PMS5003;66984;47.404;18.836;2023-05-10T04:22:45;8.00;8.00;4.00
77692;PMS5003;66984;47.404;18.836;2023-05-10T04:23:48;9.50;9.50;5.00
77692;PMS5003;66984;47.404;18.836;2023-05-10T04:24:51;12.00;10.00;5.50
77692;PMS5003;66984;47.404;18.836;2023-05-10T04:26:00;12.00;10.00;5.00
77692;PMS5003;66984;47.404;18.836;2023-05-10T04:27:04;10.00;8.50;3.00
77692;PMS5003;66984;47.404;18.836;2023-05-10T04:28:07;8.00;8.00;3.75
77692;PMS5003;66984;47.404;18.836;2023-05-10T04:29:10;9.25;9.25;3.50
77692;PMS5003;66984;47.404;18.836;2023-05-10T04:30:12;8.00;6.50;4.00
77692;PMS5003;66984;47.404;18.836;2023-05-10T04:31:16;7.00;7.00;4.00
77692;PMS5003;66984;47.404;18.836;2023-05-10T04:32:19;8.25;8.00;4.00
77692;PMS5003;66984;47.404;18.836;2023-05-10T04:33:22;8.50;8.50;4.00
77692;PMS5003;66984;47.404;18.836;2023-05-10T04:34:25;8.50;8.25;5.00
77692;PMS5003;66984;47.404;18.836;2023-05-10T04:35:28;10.50;9.50;4.50
77692;PMS5003;66984;47.404;18.836;2023-05-10T04:36:31;12.00;10.75;5.00
77692;PMS5003;66984;47.404;18.836;2023-05-10T04:37:36;13.00;9.00;5.00
77692;PMS5003;66984;47.404;18.836;2023-05-10T04:38:39;12.00;9.25;6.00
77692;PMS5003;66984;47.404;18.836;2023-05-10T04:39:42;10.50;9.25;5.50
77692;PMS5003;66984;47.404;18.836;2023-05-10T04:40:45;11.75;9.50;6.00
77692;PMS5003;66984;47.404;18.836;2023-05-10T04:41:48;9.00;7.75;5.00
77692;PMS5003;66984;47.404;18.836;2023-05-10T04:42:50;10.00;9.00;5.75
77692;PMS5003;66984;47.404;18.836;2023-05-10T04:43:55;12.00;11.00;6.00
77692;PMS5003;66984;47.404;18.836;2023-05-10T04:44:58;8.00;7.25;5.00
77692;PMS5003;66984;47.404;18.836;2023-05-10T04:46:01;10.75;10.00;5.00
77692;PMS5003;66984;47.404;18.836;2023-05-10T04:47:04;8.75;8.75;4.00
77692;PMS5003;66984;47.404;18.836;2023-05-10T04:48:07;11.50;11.00;4.00
77692;PMS5003;66984;47.404;18.836;2023-05-10T04:49:10;9.00;9.00;5.75
77692;PMS5003;66984;47.404;18.836;2023-05-10T04:50:13;11.00;10.00;5.75
77692;PMS5003;66984;47.404;18.836;2023-05-10T04:51:16;9.00;8.25;5.00
77692;PMS5003;66984;47.404;18.836;2023-05-10T04:52:19;10.75;10.75;6.00
77692;PMS5003;66984;47.404;18.836;2023-05-10T04:53:22;11.50;11.00;6.00
77692;PMS5003;66984;47.404;18.836;2023-05-10T04:54:25;10.50;10.50;6.00
77692;PMS5003;66984;47.404;18.836;2023-05-10T04:55:28;9.75;8.75;5.25
77692;PMS5003;66984;47.404;18.836;2023-05-10T04:56:31;12.50;12.00;6.00
77692;PMS5003;66984;47.404;18.836;2023-05-10T04:57:33;13.00;12.00;6.00
77692;PMS5003;66984;47.404;18.836;2023-05-10T04:58:36;13.25;12.25;7.00
77692;PMS5003;66984;47.404;18.836;2023-05-10T04:59:39;13.25;13.25;5.00
77692;PMS5003;66984;47.404;18.836;2023-05-10T05:00:42;11.00;11.00;6.00
77692;PMS5003;66984;47.404;18.836;2023-05-10T05:01:45;10.00;8.00;4.50
77692;PMS5003;66984;47.404;18.836;2023-05-10T05:02:48;9.00;9.00;5.00
77692;PMS5003;66984;47.404;18.836;2023-05-10T05:03:51;10.00;10.00;5.25
77692;PMS5003;66984;47.404;18.836;2023-05-10T05:04:55;10.75;9.25;6.00
77692;PMS5003;66984;47.404;18.836;2023-05-10T05:06:00;11.00;8.25;4.00
77692;PMS5003;66984;47.404;18.836;2023-05-10T05:07:03;11.00;10.00;5.00
77692;PMS5003;66984;47.404;18.836;2023-05-10T05:08:05;10.50;8.75;5.75
77692;PMS5003;66984;47.404;18.836;2023-05-10T05:09:08;10.00;10.00;5.00
77692;PMS5003;66984;47.404;18.836;2023-05-10T05:10:12;7.75;7.75;6.00
77692;PMS5003;66984;47.404;18.836;2023-05-10T05:11:15;10.00;10.00;6.00
77692;PMS5003;66984;47.404;18.836;2023-05-10T05:12:18;10.50;9.50;5.00
77692;PMS5003;66984;47.404;18.836;2023-05-10T05:13:21;11.25;11.00;4.00
77692;PMS5003;66984;47.404;18.836;2023-05-10T05:14:24;13.00;12.00;5.00
77692;PMS5003;66984;47.404;18.836;2023-05-10T05:15:30;15.50;13.50;6.00
77692;PMS5003;66984;47.404;18.836;2023-05-10T05:16:33;16.00;14.00;6.00
77692;PMS5003;66984;47.404;18.836;2023-05-10T05:17:36;16.00;13.00;6.00
77692;PMS5003;66984;47.404;18.836;2023-05-10T05:18:39;15.00;14.00;6.00
77692;PMS5003;66984;47.404;18.836;2023-05-10T05:19:42;15.00;14.00;5.00
77692;PMS5003;66984;47.404;18.836;2023-05-10T05:20:45;13.00;12.00;5.00
77692;PMS5003;66984;47.404;18.836;2023-05-10T05:21:48;15.00;13.00;7.00
77692;PMS5003;66984;47.404;18.836;2023-05-10T05:22:50;15.00;10.50;5.50
77692;PMS5003;66984;47.404;18.836;2023-05-10T05:23:53;14.00;12.00;6.50
77692;PMS5003;66984;47.404;18.836;2023-05-10T05:24:57;13.00;12.50;6.00
77692;PMS5003;66984;47.404;18.836;2023-05-10T05:26:04;11.00;11.00;6.00
77692;PMS5003;66984;47.404;18.836;2023-05-10T05:27:07;13.50;11.00;6.00
77692;PMS5003;66984;47.404;18.836;2023-05-10T05:28:10;14.00;13.00;5.00
77692;PMS5003;66984;47.404;18.836;2023-05-10T05:29:13;15.00;14.50;5.75
77692;PMS5003;66984;47.404;18.836;2023-05-10T05:30:16;15.75;15.00;7.00
77692;PMS5003;66984;47.404;18.836;2023-05-10T05:31:19;15.50;15.25;7.00
77692;PMS5003;66984;47.404;18.836;2023-05-10T05:32:23;13.00;12.00;6.00
77692;PMS5003;66984;47.404;18.836;2023-05-10T05:33:26;14.25;12.00;6.00
77692;PMS5003;66984;47.404;18.836;2023-05-10T05:34:29;13.00;10.25;5.25
77692;PMS5003;66984;47.404;18.836;2023-05-10T05:35:32;13.00;11.00;6.00
77692;PMS5003;66984;47.404;18.836;2023-05-10T05:36:36;15.00;13.00;7.00
77692;PMS5003;66984;47.404;18.836;2023-05-10T05:37:42;14.00;12.00;6.00
77692;PMS5003;66984;47.404;18.836;2023-05-10T05:38:45;15.00;13.00;6.00
77692;PMS5003;66984;47.404;18.836;2023-05-10T05:39:48;16.00;13.50;5.50
77692;PMS5003;66984;47.404;18.836;2023-05-10T05:40:51;16.00;15.75;8.00
77692;PMS5003;66984;47.404;18.836;2023-05-10T05:41:54;16.00;16.00;6.00
77692;PMS5003;66984;47.404;18.836;2023-05-10T05:42:57;13.75;13.75;6.75
77692;PMS5003;66984;47.404;18.836;2023-05-10T05:44:00;15.75;14.00;6.00
77692;PMS5003;66984;47.404;18.836;2023-05-10T05:45:03;16.00;16.00;7.00
77692;PMS5003;66984;47.404;18.836;2023-05-10T05:46:06;16.00;16.00;7.00
77692;PMS5003;66984;47.404;18.836;2023-05-10T05:47:09;14.00;14.00;6.00
77692;PMS5003;66984;47.404;18.836;2023-05-10T05:48:12;14.00;14.00;6.75
77692;PMS5003;66984;47.404;18.836;2023-05-10T05:49:15;13.00;13.00;6.00
77692;PMS5003;66984;47.404;18.836;2023-05-10T05:50:18;15.75;15.00;5.75
77692;PMS5003;66984;47.404;18.836;2023-05-10T05:51:21;14.00;14.00;7.00
77692;PMS5003;66984;47.404;18.836;2023-05-10T05:52:24;15.50;15.00;7.00
77692;PMS5003;66984;47.404;18.836;2023-05-10T05:53:27;14.00;13.75;5.50
77692;PMS5003;66984;47.404;18.836;2023-05-10T05:54:30;12.00;11.00;5.75
77692;PMS5003;66984;47.404;18.836;2023-05-10T05:55:33;12.00;10.00;5.00
77692;PMS5003;66984;47.404;18.836;2023-05-10T05:56:36;13.25;10.25;5.00
77692;PMS5003;66984;47.404;18.836;2023-05-10T05:57:40;13.00;10.00;5.50
77692;PMS5003;66984;47.404;18.836;2023-05-10T05:58:42;9.00;8.50;6.00
77692;PMS5003;66984;47.404;18.836;2023-05-10T05:59:46;11.00;9.50;5.50
77692;PMS5003;66984;47.404;18.836;2023-05-10T06:00:50;11.00;10.00;4.00
77692;PMS5003;66984;47.404;18.836;2023-05-10T06:01:54;10.50;8.75;4.50
77692;PMS5003;66984;47.404;18.836;2023-05-10T06:02:57;12.75;11.00;6.00
77692;PMS5003;66984;47.404;18.836;2023-05-10T06:04:00;10.00;9.00;5.00
77692;PMS5003;66984;47.404;18.836;2023-05-10T06:05:03;10.25;8.75;5.00
77692;PMS5003;66984;47.404;18.836;2023-05-10T06:06:06;12.00;9.00;4.25
77692;PMS5003;66984;47.404;18.836;2023-05-10T06:07:09;12.00;8.50;6.00
77692;PMS5003;66984;47.404;18.836;2023-05-10T06:08:12;11.00;10.00;5.00
77692;PMS5003;66984;47.404;18.836;2023-05-10T06:09:15;11.00;9.00;5.00
77692;PMS5003;66984;47.404;18.836;2023-05-10T06:10:18;11.25;9.00;6.00
77692;PMS5003;66984;47.404;18.836;2023-05-10T06:11:21;12.00;10.00;5.50
77692;PMS5003;66984;47.404;18.836;2023-05-10T06:12:24;13.00;10.00;5.00
77692;PMS5003;66984;47.404;18.836;2023-05-10T06:13:26;9.50;9.00;4.00
77692;PMS5003;66984;47.404;18.836;2023-05-10T06:14:34;9.00;9.00;4.50
77692;PMS5003;66984;47.404;18.836;2023-05-10T06:15:39;9.00;9.00;5.00
77692;PMS5003;66984;47.404;18.836;2023-05-10T06:16:42;8.00;8.00;5.00
77692;PMS5003;66984;47.404;18.836;2023-05-10T06:17:45;8.00;8.00;5.00
77692;PMS5003;66984;47.404;18.836;2023-05-10T06:18:49;8.00;8.00;4.75
77692;PMS5003;66984;47.404;18.836;2023-05-10T06:19:52;8.00;8.00;4.50
77692;PMS5003;66984;47.404;18.836;2023-05-10T06:20:55;10.50;9.00;5.00
77692;PMS5003;66984;47.404;18.836;2023-05-10T06:21:58;9.50;8.00;4.00
77692;PMS5003;66984;47.404;18.836;2023-05-10T06:23:01;8.75;8.00;4.50
77692;PMS5003;66984;47.404;18.836;2023-05-10T06:24:04;9.75;8.75;6.00
77692;PMS5003;66984;47.404;18.836;2023-05-10T06:25:09;11.00;9.25;5.50